sensor_id;sensor_type;location;lat;lon;timestamp;pressure;altitude;pressure_sealevel;temperature;humidity
34237;BME280;20501;45.956;13.632;2023-05-19T00:01:06;100936.69;;;14.05;64.72
34237;BME280;20501;45.956;13.632;2023-05-19T00:03:32;100929.72;;;14.21;65.02
34237;BME280;20501;45.956;13.632;2023-05-19T00:06:00;100931.91;;;14.35;63.62
34237;BME280;20501;45.956;13.632;2023-05-19T00:08:29;100937.16;;;14.37;64.14
34237;BME280;20501;45.956;13.632;2023-05-19T00:10:56;100935.91;;;14.49;66.03
34237;BME280;20501;45.956;13.632;2023-05-19T00:13:22;100927.38;;;14.44;63.36
34237;BME280;20501;45.956;13.632;2023-05-19T00:15:48;100929.94;;;14.46;63.86
34237;BME280;20501;45.956;13.632;2023-05-19T00:18:13;100920.03;;;14.18;64.46
34237;BME280;20501;45.956;13.632;2023-05-19T00:20:40;100928.66;;;14.14;64.26
34237;BME280;20501;45.956;13.632;2023-05-19T00:23:06;100922.47;;;14.48;63.17
34237;BME280;20501;45.956;13.632;2023-05-19T00:25:31;100924.66;;;14.44;65.27
34237;BME280;20501;45.956;13.632;2023-05-19T00:27:57;100920.63;;;14.30;63.01
34237;BME280;20501;45.956;13.632;2023-05-19T00:30:23;100931.50;;;14.48;65.39
34237;BME280;20501;45.956;13.632;2023-05-19T00:32:50;100926.53;;;14.44;63.13
34237;BME280;20501;45.956;13.632;2023-05-19T00:35:15;100928.31;;;14.35;63.76
34237;BME280;20501;45.956;13.632;2023-05-19T00:37:41;100925.00;;;14.41;63.32
34237;BME280;20501;45.956;13.632;2023-05-19T00:40:08;100936.41;;;14.45;65.94
34237;BME280;20501;45.956;13.632;2023-05-19T00:42:34;100934.56;;;14.72;65.87
34237;BME280;20501;45.956;13.632;2023-05-19T00:45:00;100931.13;;;14.25;65.53
34237;BME280;20501;45.956;13.632;2023-05-19T00:47:25;100929.63;;;14.67;64.86
34237;BME280;20501;45.956;13.632;2023-05-19T00:49:50;100926.69;;;14.24;63.68
34237;BME280;20501;45.956;13.632;2023-05-19T00:52:16;100925.44;;;14.36;65.98
34237;BME280;20501;45.956;13.632;2023-05-19T00:54:43;100926.28;;;14.55;65.66
34237;BME280;20501;45.956;13.632;2023-05-19T00:57:10;100919.91;;;14.46;67.26
34237;BME280;20501;45.956;13.632;2023-05-19T00:59:36;100916.44;;;14.36;66.35
34237;BME280;20501;45.956;13.632;2023-05-19T01:02:02;100919.16;;;14.00;67.88
34237;BME280;20501;45.956;13.632;2023-05-19T01:04:27;100917.78;;;14.14;64.72
34237;BME280;20501;45.956;13.632;2023-05-19T01:06:54;100922.84;;;14.53;66.96
34237;BME280;20501;45.956;13.632;2023-05-19T01:09:21;100920.38;;;14.42;63.65
34237;BME280;20501;45.956;13.632;2023-05-19T01:11:49;100919.25;;;14.08;65.61
34237;BME280;20501;45.956;13.632;2023-05-19T01:14:15;100915.03;;;14.32;63.31
34237;BME280;20501;45.956;13.632;2023-05-19T01:17:17;100917.91;;;14.30;64.88
34237;BME280;20501;45.956;13.632;2023-05-19T01:25:30;100919.91;;;13.74;67.72
34237;BME280;20501;45.956;13.632;2023-05-19T01:30:48;100915.25;;;14.38;67.42
34237;BME280;20501;45.956;13.632;2023-05-19T01:33:16;100916.41;;;13.64;67.86
34237;BME280;20501;45.956;13.632;2023-05-19T01:35:44;100914.88;;;14.51;67.46
34237;BME280;20501;45.956;13.632;2023-05-19T01:38:11;100917.59;;;14.33;68.02
34237;BME280;20501;45.956;13.632;2023-05-19T01:40:38;100921.16;;;14.16;66.18
34237;BME280;20501;45.956;13.632;2023-05-19T01:43:06;100911.72;;;14.20;68.72
34237;BME280;20501;45.956;13.632;2023-05-19T01:45:34;100912.13;;;14.69;66.77
34237;BME280;20501;45.956;13.632;2023-05-19T01:48:02;100906.41;;;14.36;65.63
34237;BME280;20501;45.956;13.632;2023-05-19T01:50:28;100914.91;;;14.15;66.46
34237;BME280;20501;45.956;13.632;2023-05-19T01:52:54;100905.00;;;13.78;65.71
34237;BME280;20501;45.956;13.632;2023-05-19T01:55:20;100910.06;;;14.45;67.51
34237;BME280;20501;45.956;13.632;2023-05-19T02:06:31;100912.78;;;13.73;67.30
34237;BME280;20501;45.956;13.632;2023-05-19T02:12:36;100921.41;;;14.22;68.55
34237;BME280;20501;45.956;13.632;2023-05-19T02:17:35;100922.88;;;14.17;66.55
34237;BME280;20501;45.956;13.632;2023-05-19T02:20:02;100923.38;;;13.66;68.34
34237;BME280;20501;45.956;13.632;2023-05-19T02:22:29;100924.25;;;13.85;67.46
34237;BME280;20501;45.956;13.632;2023-05-19T02:24:55;100919.84;;;14.56;67.17
34237;BME280;20501;45.956;13.632;2023-05-19T02:27:21;100923.66;;;13.91;69.89
34237;BME280;20501;45.956;13.632;2023-05-19T02:29:47;100921.97;;;12.87;69.94
34237;BME280;20501;45.956;13.632;2023-05-19T02:32:13;100910.81;;;13.37;66.46
34237;BME280;20501;45.956;13.632;2023-05-19T02:34:39;100915.53;;;13.35;70.01
34237;BME280;20501;45.956;13.632;2023-05-19T02:37:06;100910.53;;;13.68;69.39
34237;BME280;20501;45.956;13.632;2023-05-19T02:39:31;100905.41;;;13.83;69.18
34237;BME280;20501;45.956;13.632;2023-05-19T02:41:59;100905.00;;;13.60;67.60
34237;BME280;20501;45.956;13.632;2023-05-19T02:44:25;100907.50;;;13.89;66.99
34237;BME280;20501;45.956;13.632;2023-05-19T02:46:50;100906.66;;;13.43;68.36
34237;BME280;20501;45.956;13.632;2023-05-19T02:49:15;100914.34;;;13.93;69.00
34237;BME280;20501;45.956;13.632;2023-05-19T02:51:41;100911.31;;;13.97;69.27
34237;BME280;20501;45.956;13.632;2023-05-19T02:54:06;100906.97;;;13.86;67.29
34237;BME280;20501;45.956;13.632;2023-05-19T02:56:32;100896.81;;;13.42;68.16
34237;BME280;20501;45.956;13.632;2023-05-19T02:58:57;100903.09;;;14.24;65.97
34237;BME280;20501;45.956;13.632;2023-05-19T03:01:22;100905.59;;;13.54;67.66
34237;BME280;20501;45.956;13.632;2023-05-19T03:03:48;100901.75;;;13.74;67.12
34237;BME280;20501;45.956;13.632;2023-05-19T03:06:13;100899.28;;;13.25;68.97
34237;BME280;20501;45.956;13.632;2023-05-19T03:08:39;100896.06;;;13.12;68.59
34237;BME280;20501;45.956;13.632;2023-05-19T03:11:05;100890.56;;;13.59;67.18
34237;BME280;20501;45.956;13.632;2023-05-19T03:13:30;100895.56;;;13.82;69.18
34237;BME280;20501;45.956;13.632;2023-05-19T03:15:56;100898.13;;;14.02;67.31
34237;BME280;20501;45.956;13.632;2023-05-19T03:18:23;100895.25;;;13.29;68.18
34237;BME280;20501;45.956;13.632;2023-05-19T03:20:49;100897.66;;;13.42;70.66
34237;BME280;20501;45.956;13.632;2023-05-19T03:23:14;100906.22;;;13.48;67.80
34237;BME280;20501;45.956;13.632;2023-05-19T03:25:40;100900.00;;;13.55;69.96
34237;BME280;20501;45.956;13.632;2023-05-19T03:28:05;100893.59;;;13.19;68.14
34237;BME280;20501;45.956;13.632;2023-05-19T03:30:31;100898.78;;;13.50;69.60
34237;BME280;20501;45.956;13.632;2023-05-19T03:32:56;100901.16;;;13.53;67.64
34237;BME280;20501;45.956;13.632;2023-05-19T03:35:22;100905.69;;;13.62;67.68
34237;BME280;20501;45.956;13.632;2023-05-19T03:37:47;100906.50;;;14.08;68.35
34237;BME280;20501;45.956;13.632;2023-05-19T03:40:12;100897.78;;;13.69;68.24
34237;BME280;20501;45.956;13.632;2023-05-19T03:42:38;100900.16;;;13.82;66.40
34237;BME280;20501;45.956;13.632;2023-05-19T03:45:04;100896.31;;;13.74;66.86
34237;BME280;20501;45.956;13.632;2023-05-19T03:47:29;100908.00;;;14.21;67.85
34237;BME280;20501;45.956;13.632;2023-05-19T03:49:55;100907.03;;;14.30;66.41
34237;BME280;20501;45.956;13.632;2023-05-19T03:52:21;100898.09;;;14.56;66.73
34237;BME280;20501;45.956;13.632;2023-05-19T03:54:46;100909.47;;;13.51;66.64
34237;BME280;20501;45.956;13.632;2023-05-19T03:57:13;100908.53;;;13.32;68.55
34237;BME280;20501;45.956;13.632;2023-05-19T03:59:38;100904.94;;;13.88;67.38
34237;BME280;20501;45.956;13.632;2023-05-19T04:02:05;100914.66;;;13.44;67.98
34237;BME280;20501;45.956;13.632;2023-05-19T04:04:31;100910.44;;;13.78;69.12
34237;BME280;20501;45.956;13.632;2023-05-19T04:06:56;100899.47;;;13.52;69.78
34237;BME280;20501;45.956;13.632;2023-05-19T04:09:22;100896.94;;;14.04;68.84
34237;BME280;20501;45.956;13.632;2023-05-19T04:11:50;100904.09;;;13.69;69.23
34237;BME280;20501;45.956;13.632;2023-05-19T04:14:16;100902.63;;;14.11;68.23
34237;BME280;20501;45.956;13.632;2023-05-19T04:16:41;100904.78;;;13.71;67.43
34237;BME280;20501;45.956;13.632;2023-05-19T04:19:07;100905.03;;;13.96;66.96
34237;BME280;20501;45.956;13.632;2023-05-19T04:21:32;100904.97;;;14.06;65.34
34237;BME280;20501;45.956;13.632;2023-05-19T04:23:58;100902.94;;;14.08;65.99
34237;BME280;20501;45.956;13.632;2023-05-19T04:26:25;100901.44;;;14.32;67.10
34237;BME280;20501;45.956;13.632;2023-05-19T04:28:51;100908.34;;;14.44;64.10
34237;BME280;20501;45.956;13.632;2023-05-19T04:31:18;100910.34;;;14.42;64.35
34237;BME280;20501;45.956;13.632;2023-05-19T04:33:45;100905.16;;;14.49;65.81
34237;BME280;20501;45.956;13.632;2023-05-19T04:36:12;100910.09;;;14.72;64.79
34237;BME280;20501;45.956;13.632;2023-05-19T04:38:38;100913.22;;;14.59;63.68
34237;BME280;20501;45.956;13.632;2023-05-19T04:41:07;100918.69;;;14.40;64.47
34237;BME280;20501;45.956;13.632;2023-05-19T04:43:35;100918.53;;;14.06;66.35
34237;BME280;20501;45.956;13.632;2023-05-19T04:46:06;100915.72;;;14.16;66.48
34237;BME280;20501;45.956;13.632;2023-05-19T04:48:31;100916.66;;;14.43;66.91
34237;BME280;20501;45.956;13.632;2023-05-19T04:50:58;100914.53;;;14.54;66.66
34237;BME280;20501;45.956;13.632;2023-05-19T04:53:27;100922.31;;;14.49;64.25
34237;BME280;20501;45.956;13.632;2023-05-19T04:55:52;100919.44;;;14.51;64.04
34237;BME280;20501;45.956;13.632;2023-05-19T04:58:18;100913.16;;;14.50;65.85
34237;BME280;20501;45.956;13.632;2023-05-19T05:00:44;100913.38;;;14.57;64.63
34237;BME280;20501;45.956;13.632;2023-05-19T05:03:09;100917.00;;;14.66;64.24
34237;BME280;20501;45.956;13.632;2023-05-19T05:05:36;100911.13;;;14.70;64.13
34237;BME280;20501;45.956;13.632;2023-05-19T05:08:02;100920.69;;;14.75;63.73
34237;BME280;20501;45.956;13.632;2023-05-19T05:10:27;100911.25;;;14.87;63.55
34237;BME280;20501;45.956;13.632;2023-05-19T05:12:53;100911.88;;;14.81;63.39
34237;BME280;20501;45.956;13.632;2023-05-19T05:15:19;100915.16;;;14.84;63.61
34237;BME280;20501;45.956;13.632;2023-05-19T05:17:45;100914.38;;;14.74;63.69
34237;BME280;20501;45.956;13.632;2023-05-19T05:20:11;100912.88;;;14.80;64.69
34237;BME280;20501;45.956;13.632;2023-05-19T05:22:37;100918.00;;;14.83;63.63
34237;BME280;20501;45.956;13.632;2023-05-19T05:25:05;100913.91;;;14.79;64.29
34237;BME280;20501;45.956;13.632;2023-05-19T05:27:31;100912.25;;;14.86;64.21
34237;BME280;20501;45.956;13.632;2023-05-19T05:29:56;100921.94;;;14.89;65.44
34237;BME280;20501;45.956;13.632;2023-05-19T05:32:22;100920.59;;;14.84;65.40
34237;BME280;20501;45.956;13.632;2023-05-19T05:34:47;100916.16;;;14.83;64.03
34237;BME280;20501;45.956;13.632;2023-05-19T05:37:14;100926.06;;;14.93;64.18
34237;BME280;20501;45.956;13.632;2023-05-19T05:39:39;100920.97;;;14.98;64.14
34237;BME280;20501;45.956;13.632;2023-05-19T05:42:05;100922.69;;;14.99;63.51
34237;BME280;20501;45.956;13.632;2023-05-19T05:44:30;100930.53;;;15.02;64.03
34237;BME280;20501;45.956;13.632;2023-05-19T05:46:56;100931.94;;;15.06;63.90
34237;BME280;20501;45.956;13.632;2023-05-19T05:49:22;100928.56;;;15.12;64.11
34237;BME280;20501;45.956;13.632;2023-05-19T05:51:47;100928.25;;;15.15;63.14
34237;BME280;20501;45.956;13.632;2023-05-19T05:54:15;100929.59;;;15.20;63.22
34237;BME280;20501;45.956;13.632;2023-05-19T05:56:43;100933.03;;;15.22;62.68
34237;BME280;20501;45.956;13.632;2023-05-19T05:59:08;100929.81;;;15.26;63.32
34237;BME280;20501;45.956;13.632;2023-05-19T06:01:34;100931.84;;;15.24;64.67
34237;BME280;20501;45.956;13.632;2023-05-19T06:04:02;100927.81;;;15.37;64.22
34237;BME280;20501;45.956;13.632;2023-05-19T06:06:28;100925.53;;;15.58;61.68
34237;BME280;20501;45.956;13.632;2023-05-19T06:08:53;100918.06;;;15.60;63.16
34237;BME280;20501;45.956;13.632;2023-05-19T06:11:19;100925.25;;;15.78;61.45
34237;BME280;20501;45.956;13.632;2023-05-19T06:13:45;100922.50;;;15.78;61.01
34237;BME280;20501;45.956;13.632;2023-05-19T06:16:10;100916.84;;;15.98;59.33
34237;BME280;20501;45.956;13.632;2023-05-19T06:18:36;100922.28;;;15.98;60.46
34237;BME280;20501;45.956;13.632;2023-05-19T06:21:01;100922.41;;;15.88;60.42
34237;BME280;20501;45.956;13.632;2023-05-19T06:23:29;100928.19;;;15.93;59.07
34237;BME280;20501;45.956;13.632;2023-05-19T06:25:54;100934.63;;;15.84;61.47
34237;BME280;20501;45.956;13.632;2023-05-19T06:28:20;100933.63;;;15.85;60.63
34237;BME280;20501;45.956;13.632;2023-05-19T06:30:46;100931.63;;;15.95;59.15
34237;BME280;20501;45.956;13.632;2023-05-19T06:33:11;100943.22;;;16.05;58.93
34237;BME280;20501;45.956;13.632;2023-05-19T06:35:37;100940.47;;;15.89;61.43
34237;BME280;20501;45.956;13.632;2023-05-19T06:38:02;100935.22;;;16.04;58.51
34237;BME280;20501;45.956;13.632;2023-05-19T06:40:27;100929.44;;;16.07;58.11
34237;BME280;20501;45.956;13.632;2023-05-19T06:42:53;100928.19;;;15.93;60.19
34237;BME280;20501;45.956;13.632;2023-05-19T06:45:18;100932.81;;;15.92;59.76
34237;BME280;20501;45.956;13.632;2023-05-19T06:47:49;100942.19;;;15.98;59.83
34237;BME280;20501;45.956;13.632;2023-05-19T06:50:15;100940.97;;;15.92;59.65
34237;BME280;20501;45.956;13.632;2023-05-19T06:52:40;100931.13;;;16.00;58.72
34237;BME280;20501;45.956;13.632;2023-05-19T06:55:06;100938.13;;;16.02;58.69
34237;BME280;20501;45.956;13.632;2023-05-19T06:57:31;100940.16;;;15.92;60.42
34237;BME280;20501;45.956;13.632;2023-05-19T06:59:57;100935.41;;;16.11;58.83
34237;BME280;20501;45.956;13.632;2023-05-19T07:02:22;100947.50;;;16.33;57.82
34237;BME280;20501;45.956;13.632;2023-05-19T07:04:48;100948.38;;;16.33;57.87
34237;BME280;20501;45.956;13.632;2023-05-19T07:07:15;100943.09;;;16.23;58.98
34237;BME280;20501;45.956;13.632;2023-05-19T07:09:40;100934.84;;;15.99;61.15
34237;BME280;20501;45.956;13.632;2023-05-19T07:12:06;100939.16;;;16.18;59.89
34237;BME280;20501;45.956;13.632;2023-05-19T07:14:31;100943.25;;;16.47;58.26
34237;BME280;20501;45.956;13.632;2023-05-19T07:16:57;100941.06;;;16.59;57.55
34237;BME280;20501;45.956;13.632;2023-05-19T07:19:22;100946.16;;;16.37;58.50
34237;BME280;20501;45.956;13.632;2023-05-19T07:21:48;100953.31;;;16.30;57.69
34237;BME280;20501;45.956;13.632;2023-05-19T07:24:13;100949.22;;;16.25;59.25
34237;BME280;20501;45.956;13.632;2023-05-19T07:26:39;100957.41;;;16.17;60.04
34237;BME280;20501;45.956;13.632;2023-05-19T07:29:05;100952.28;;;16.22;59.61
34237;BME280;20501;45.956;13.632;2023-05-19T07:31:31;100959.09;;;16.27;58.42
34237;BME280;20501;45.956;13.632;2023-05-19T07:33:57;100956.38;;;16.18;58.64
34237;BME280;20501;45.956;13.632;2023-05-19T07:36:25;100958.41;;;16.24;58.76
34237;BME280;20501;45.956;13.632;2023-05-19T07:38:51;100958.41;;;16.24;58.45
34237;BME280;20501;45.956;13.632;2023-05-19T07:41:16;100950.94;;;16.18;60.29
34237;BME280;20501;45.956;13.632;2023-05-19T07:43:42;100955.50;;;16.18;58.80
34237;BME280;20501;45.956;13.632;2023-05-19T07:46:07;100954.84;;;16.32;58.01
34237;BME280;20501;45.956;13.632;2023-05-19T07:48:33;100936.59;;;16.24;59.19
34237;BME280;20501;45.956;13.632;2023-05-19T07:50:58;100947.03;;;16.46;58.03
34237;BME280;20501;45.956;13.632;2023-05-19T07:53:23;100938.34;;;16.59;58.72
34237;BME280;20501;45.956;13.632;2023-05-19T07:55:49;100947.03;;;16.79;57.67
34237;BME280;20501;45.956;13.632;2023-05-19T07:58:14;100950.78;;;16.94;56.03
34237;BME280;20501;45.956;13.632;2023-05-19T08:00:40;100955.03;;;16.97;57.36
34237;BME280;20501;45.956;13.632;2023-05-19T08:03:08;100945.63;;;16.91;57.26
34237;BME280;20501;45.956;13.632;2023-05-19T08:05:34;100950.09;;;17.00;58.11
34237;BME280;20501;45.956;13.632;2023-05-19T08:08:00;100955.16;;;17.20;57.74
34237;BME280;20501;45.956;13.632;2023-05-19T08:10:25;100951.22;;;17.23;56.50
34237;BME280;20501;45.956;13.632;2023-05-19T08:12:51;100951.03;;;17.24;56.44
34237;BME280;20501;45.956;13.632;2023-05-19T08:15:16;100954.56;;;17.41;56.98
34237;BME280;20501;45.956;13.632;2023-05-19T08:17:43;100950.25;;;17.55;53.81
34237;BME280;20501;45.956;13.632;2023-05-19T08:20:09;100949.06;;;17.49;56.56
34237;BME280;20501;45.956;13.632;2023-05-19T08:22:35;100949.19;;;17.16;55.96
34237;BME280;20501;45.956;13.632;2023-05-19T08:25:00;100943.09;;;17.46;55.66
34237;BME280;20501;45.956;13.632;2023-05-19T08:27:27;100949.00;;;17.18;54.94
34237;BME280;20501;45.956;13.632;2023-05-19T08:29:53;100948.38;;;17.08;55.39
34237;BME280;20501;45.956;13.632;2023-05-19T08:32:19;100948.03;;;17.11;56.98
34237;BME280;20501;45.956;13.632;2023-05-19T08:34:44;100943.06;;;17.14;56.23
34237;BME280;20501;45.956;13.632;2023-05-19T08:37:10;100941.38;;;16.97;56.43
34237;BME280;20501;45.956;13.632;2023-05-19T08:39:36;100950.06;;;17.09;56.13
34237;BME280;20501;45.956;13.632;2023-05-19T08:42:01;100939.00;;;16.94;56.60
34237;BME280;20501;45.956;13.632;2023-05-19T08:44:26;100943.94;;;17.07;57.09
34237;BME280;20501;45.956;13.632;2023-05-19T08:46:54;100941.72;;;17.02;56.57
34237;BME280;20501;45.956;13.632;2023-05-19T08:49:26;100947.47;;;17.24;55.44
34237;BME280;20501;45.956;13.632;2023-05-19T08:52:10;100951.25;;;17.14;57.61
34237;BME280;20501;45.956;13.632;2023-05-19T08:54:46;100945.41;;;17.17;56.88
34237;BME280;20501;45.956;13.632;2023-05-19T08:57:15;100953.56;;;17.34;56.71
34237;BME280;20501;45.956;13.632;2023-05-19T08:59:41;100950.50;;;17.37;58.14
34237;BME280;20501;45.956;13.632;2023-05-19T09:02:09;100963.22;;;17.61;55.07
34237;BME280;20501;45.956;13.632;2023-05-19T09:04:35;100968.19;;;17.58;55.31
34237;BME280;20501;45.956;13.632;2023-05-19T09:07:02;100971.25;;;17.55;54.89
34237;BME280;20501;45.956;13.632;2023-05-19T09:09:28;100969.84;;;17.02;57.87
34237;BME280;20501;45.956;13.632;2023-05-19T09:11:54;100972.34;;;17.29;55.85
34237;BME280;20501;45.956;13.632;2023-05-19T09:14:20;100974.44;;;17.27;55.86
34237;BME280;20501;45.956;13.632;2023-05-19T09:16:45;100967.63;;;17.14;57.00
34237;BME280;20501;45.956;13.632;2023-05-19T09:19:15;100974.41;;;17.18;55.53
34237;BME280;20501;45.956;13.632;2023-05-19T09:21:40;100970.19;;;17.08;56.67
34237;BME280;20501;45.956;13.632;2023-05-19T09:24:06;100969.50;;;17.22;57.22
34237;BME280;20501;45.956;13.632;2023-05-19T09:26:37;100973.03;;;17.31;56.02
34237;BME280;20501;45.956;13.632;2023-05-19T09:29:14;100980.66;;;17.52;54.49
34237;BME280;20501;45.956;13.632;2023-05-19T09:31:51;100964.91;;;16.98;57.56
34237;BME280;20501;45.956;13.632;2023-05-19T09:34:17;100970.72;;;17.03;58.50
34237;BME280;20501;45.956;13.632;2023-05-19T09:36:42;100986.31;;;17.42;55.14
34237;BME280;20501;45.956;13.632;2023-05-19T09:39:12;100975.00;;;16.97;57.29
34237;BME280;20501;45.956;13.632;2023-05-19T09:41:38;100973.44;;;17.11;57.20
34237;BME280;20501;45.956;13.632;2023-05-19T09:44:04;100978.50;;;17.31;56.11
34237;BME280;20501;45.956;13.632;2023-05-19T09:46:31;100969.78;;;17.36;56.75
34237;BME280;20501;45.956;13.632;2023-05-19T09:48:58;100975.94;;;17.29;56.85
34237;BME280;20501;45.956;13.632;2023-05-19T09:51:23;100982.97;;;17.15;57.57
34237;BME280;20501;45.956;13.632;2023-05-19T09:53:51;100985.34;;;17.27;58.78
34237;BME280;20501;45.956;13.632;2023-05-19T09:56:17;100969.13;;;17.25;57.79
34237;BME280;20501;45.956;13.632;2023-05-19T09:58:47;100984.41;;;17.51;57.76
34237;BME280;20501;45.956;13.632;2023-05-19T10:01:13;100983.38;;;17.52;57.03
34237;BME280;20501;45.956;13.632;2023-05-19T10:03:39;100981.28;;;17.14;58.09
34237;BME280;20501;45.956;13.632;2023-05-19T10:06:06;100977.47;;;17.32;57.37
34237;BME280;20501;45.956;13.632;2023-05-19T10:08:33;100983.94;;;17.31;56.16
34237;BME280;20501;45.956;13.632;2023-05-19T10:11:00;100987.41;;;17.16;57.81
34237;BME280;20501;45.956;13.632;2023-05-19T10:13:26;100979.19;;;17.25;58.35
34237;BME280;20501;45.956;13.632;2023-05-19T10:15:53;100967.75;;;17.29;57.78
34237;BME280;20501;45.956;13.632;2023-05-19T10:18:20;100982.63;;;17.75;57.51
34237;BME280;20501;45.956;13.632;2023-05-19T10:20:47;100988.63;;;17.62;55.25
34237;BME280;20501;45.956;13.632;2023-05-19T10:23:14;100979.75;;;17.68;55.58
34237;BME280;20501;45.956;13.632;2023-05-19T10:25:39;100969.94;;;17.82;54.61
34237;BME280;20501;45.956;13.632;2023-05-19T10:28:10;100980.81;;;17.90;54.84
34237;BME280;20501;45.956;13.632;2023-05-19T10:30:40;100979.31;;;17.88;54.98
34237;BME280;20501;45.956;13.632;2023-05-19T10:33:10;100978.63;;;17.86;54.59
34237;BME280;20501;45.956;13.632;2023-05-19T10:36:09;100969.84;;;17.67;55.21
34237;BME280;20501;45.956;13.632;2023-05-19T10:41:11;100976.25;;;17.83;57.51
34237;BME280;20501;45.956;13.632;2023-05-19T10:43:46;100977.50;;;18.12;56.99
34237;BME280;20501;45.956;13.632;2023-05-19T10:46:13;100964.06;;;18.02;54.67
34237;BME280;20501;45.956;13.632;2023-05-19T10:48:43;100965.53;;;18.36;54.85
34237;BME280;20501;45.956;13.632;2023-05-19T10:51:08;100970.94;;;18.21;53.42
34237;BME280;20501;45.956;13.632;2023-05-19T10:53:40;100966.69;;;18.18;52.75
34237;BME280;20501;45.956;13.632;2023-05-19T10:56:06;100957.50;;;18.11;53.50
34237;BME280;20501;45.956;13.632;2023-05-19T11:01:07;100955.63;;;18.35;53.98
34237;BME280;20501;45.956;13.632;2023-05-19T11:03:51;100949.81;;;18.38;52.54
34237;BME280;20501;45.956;13.632;2023-05-19T11:09:11;100938.97;;;18.45;53.75
34237;BME280;20501;45.956;13.632;2023-05-19T11:11:53;100934.78;;;18.10;54.58
34237;BME280;20501;45.956;13.632;2023-05-19T11:14:22;100942.28;;;18.40;53.43
34237;BME280;20501;45.956;13.632;2023-05-19T11:16:52;100938.31;;;18.43;52.03
34237;BME280;20501;45.956;13.632;2023-05-19T11:19:27;100935.03;;;18.47;54.25
34237;BME280;20501;45.956;13.632;2023-05-19T11:21:54;100935.81;;;18.33;55.46
34237;BME280;20501;45.956;13.632;2023-05-19T11:24:36;100927.16;;;18.67;52.72
34237;BME280;20501;45.956;13.632;2023-05-19T11:30:10;100927.00;;;18.22;53.68
34237;BME280;20501;45.956;13.632;2023-05-19T11:32:39;100928.72;;;18.23;54.75
34237;BME280;20501;45.956;13.632;2023-05-19T11:35:07;100917.66;;;17.54;56.60
34237;BME280;20501;45.956;13.632;2023-05-19T11:37:34;100911.19;;;18.33;52.04
34237;BME280;20501;45.956;13.632;2023-05-19T11:40:03;100905.38;;;18.36;53.03
34237;BME280;20501;45.956;13.632;2023-05-19T11:42:31;100903.25;;;18.23;52.26
34237;BME280;20501;45.956;13.632;2023-05-19T11:44:59;100901.34;;;18.47;51.86
34237;BME280;20501;45.956;13.632;2023-05-19T11:47:26;100898.00;;;17.58;56.70
34237;BME280;20501;45.956;13.632;2023-05-19T11:49:53;100897.31;;;17.88;53.75
34237;BME280;20501;45.956;13.632;2023-05-19T11:52:22;100896.31;;;18.12;52.37
34237;BME280;20501;45.956;13.632;2023-05-19T11:54:49;100903.56;;;18.05;54.58
34237;BME280;20501;45.956;13.632;2023-05-19T11:57:15;100907.81;;;17.76;54.88
34237;BME280;20501;45.956;13.632;2023-05-19T11:59:41;100894.66;;;17.79;56.23
34237;BME280;20501;45.956;13.632;2023-05-19T12:02:23;100887.75;;;18.15;52.60
34237;BME280;20501;45.956;13.632;2023-05-19T12:04:49;100887.59;;;18.55;50.73
34237;BME280;20501;45.956;13.632;2023-05-19T12:07:16;100889.88;;;18.28;51.15
34237;BME280;20501;45.956;13.632;2023-05-19T12:09:43;100893.22;;;17.92;53.03
34237;BME280;20501;45.956;13.632;2023-05-19T12:12:12;100886.19;;;18.21;52.35
34237;BME280;20501;45.956;13.632;2023-05-19T12:14:39;100899.59;;;18.54;52.58
34237;BME280;20501;45.956;13.632;2023-05-19T12:17:12;100884.47;;;18.58;51.70
34237;BME280;20501;45.956;13.632;2023-05-19T12:19:38;100897.13;;;18.21;52.41
34237;BME280;20501;45.956;13.632;2023-05-19T12:22:06;100888.94;;;18.74;50.02
34237;BME280;20501;45.956;13.632;2023-05-19T12:24:35;100884.56;;;18.50;52.97
34237;BME280;20501;45.956;13.632;2023-05-19T12:27:05;100878.78;;;18.30;53.07
34237;BME280;20501;45.956;13.632;2023-05-19T12:29:31;100878.56;;;18.31;51.60
34237;BME280;20501;45.956;13.632;2023-05-19T12:31:57;100879.53;;;17.92;54.71
34237;BME280;20501;45.956;13.632;2023-05-19T12:34:22;100880.97;;;18.34;51.48
34237;BME280;20501;45.956;13.632;2023-05-19T12:36:48;100873.78;;;18.10;52.55
34237;BME280;20501;45.956;13.632;2023-05-19T12:39:14;100884.84;;;18.17;51.62
34237;BME280;20501;45.956;13.632;2023-05-19T12:41:39;100882.09;;;18.17;52.74
34237;BME280;20501;45.956;13.632;2023-05-19T12:44:15;100892.84;;;18.41;50.50
34237;BME280;20501;45.956;13.632;2023-05-19T12:46:41;100895.16;;;18.06;53.14
34237;BME280;20501;45.956;13.632;2023-05-19T12:49:07;100884.41;;;18.28;52.79
34237;BME280;20501;45.956;13.632;2023-05-19T12:51:33;100887.53;;;17.93;53.55
34237;BME280;20501;45.956;13.632;2023-05-19T12:54:01;100890.72;;;18.67;49.95
34237;BME280;20501;45.956;13.632;2023-05-19T12:56:28;100897.88;;;19.06;49.41
34237;BME280;20501;45.956;13.632;2023-05-19T12:58:54;100902.72;;;18.81;49.38
34237;BME280;20501;45.956;13.632;2023-05-19T13:01:21;100899.34;;;18.79;51.36
34237;BME280;20501;45.956;13.632;2023-05-19T13:03:48;100902.69;;;19.34;48.40
34237;BME280;20501;45.956;13.632;2023-05-19T13:06:13;100907.97;;;19.21;46.63
34237;BME280;20501;45.956;13.632;2023-05-19T13:08:40;100909.47;;;19.23;46.36
34237;BME280;20501;45.956;13.632;2023-05-19T13:11:05;100909.59;;;19.15;45.92
34237;BME280;20501;45.956;13.632;2023-05-19T13:13:31;100902.97;;;18.94;47.40